createdAt,value
2023-05-14T00:00:59.200Z,101453.56
2023-05-14T00:03:27.015Z,101454.13
2023-05-14T00:05:54.874Z,101443.94
2023-05-14T00:08:24.469Z,101451.44
2023-05-14T00:10:52.101Z,101459.16
2023-05-14T00:13:19.834Z,101447.59
2023-05-14T00:15:48.068Z,101455.06
2023-05-14T00:18:15.839Z,101447.59
2023-05-14T00:20:43.518Z,101454.78
2023-05-14T00:23:11.629Z,101447.34
2023-05-14T00:25:40.765Z,101444.03
2023-05-14T00:28:08.861Z,101439.91
2023-05-14T00:30:36.509Z,101442.94
2023-05-14T00:33:04.700Z,101445.97
2023-05-14T00:35:35.548Z,101436.63
2023-05-14T00:38:03.335Z,101432.25
2023-05-14T00:40:31.093Z,101439.16
2023-05-14T00:43:00.538Z,101433.38
2023-05-14T00:45:29.109Z,101433.09
2023-05-14T00:47:57.399Z,101429.22
2023-05-14T00:50:25.394Z,101427.03
2023-05-14T00:52:53.402Z,101424.81
2023-05-14T00:55:22.714Z,101419.84
2023-05-14T00:57:51.577Z,101425.69
2023-05-14T01:00:21.386Z,101427.31
2023-05-14T01:02:49.392Z,101427.06
2023-05-14T01:05:17.570Z,101415.47
2023-05-14T01:07:55.124Z,101421.81
2023-05-14T01:10:29.649Z,101425.13
2023-05-14T01:13:05.352Z,101428.44
2023-05-14T01:15:37.793Z,101428.16
2023-05-14T01:18:09.415Z,101424.03
2023-05-14T01:20:37.424Z,101430.09
2023-05-14T01:23:07.483Z,101421.84
2023-05-14T01:25:35.301Z,101421.31
2023-05-14T01:28:10.434Z,101423.78
2023-05-14T01:30:41.322Z,101424.03
2023-05-14T01:33:13.649Z,101420.19
2023-05-14T01:35:42.045Z,101413.03
2023-05-14T01:38:13.364Z,101417.44
2023-05-14T01:40:43.052Z,101414.44
2023-05-14T01:43:11.574Z,101420.19
2023-05-14T01:45:39.668Z,101417.44
2023-05-14T01:48:07.536Z,101418.53
2023-05-14T01:50:35.483Z,101416.63
2023-05-14T01:53:03.543Z,101411.94
2023-05-14T01:55:32.634Z,101412.47
2023-05-14T01:58:00.369Z,101406.41
2023-05-14T02:00:28.647Z,101412.75
2023-05-14T02:02:56.344Z,101413.03
2023-05-14T02:05:24.528Z,101408.88
2023-05-14T02:07:52.344Z,101406.13
2023-05-14T02:10:20.843Z,101401.72
2023-05-14T02:12:49.996Z,101409.41
2023-05-14T02:15:17.813Z,101403.91
2023-05-14T02:17:46.103Z,101401.97
2023-05-14T02:20:14.895Z,101401.16
2023-05-14T02:22:45.597Z,101404.72
2023-05-14T02:25:13.417Z,101408.31
2023-05-14T02:27:41.483Z,101405.81
2023-05-14T02:30:13.018Z,101403.91
2023-05-14T02:32:41.261Z,101398.94
2023-05-14T02:35:10.039Z,101399.75
2023-05-14T02:37:37.747Z,101397.84
2023-05-14T02:40:06.854Z,101406.88
2023-05-14T02:42:34.596Z,101399.47
2023-05-14T02:45:02.302Z,101400.59
2023-05-14T02:47:31.813Z,101396.97
2023-05-14T02:49:59.672Z,101402.22
2023-05-14T02:52:27.534Z,101402.47
2023-05-14T02:54:55.657Z,101402.22
2023-05-14T02:57:23.289Z,101401.91
2023-05-14T02:59:50.959Z,101395.56
2023-05-14T03:02:19.728Z,101407.44
2023-05-14T03:04:49.204Z,101406.34
2023-05-14T03:07:16.965Z,101399.97
2023-05-14T03:09:45.612Z,101398.03
2023-05-14T03:12:14.332Z,101403.81
2023-05-14T03:14:42.510Z,101402.16
2023-05-14T03:17:10.376Z,101406.00
2023-05-14T03:19:38.125Z,101408.22
2023-05-14T03:22:07.554Z,101404.91
2023-05-14T03:24:36.273Z,101404.59
2023-05-14T03:27:04.655Z,101405.44
2023-05-14T03:29:32.406Z,101404.34
2023-05-14T03:32:00.516Z,101401.03
2023-05-14T03:34:28.247Z,101397.44
2023-05-14T03:36:57.045Z,101403.78
2023-05-14T03:39:26.118Z,101402.69
2023-05-14T03:41:54.255Z,101402.97
2023-05-14T03:44:21.951Z,101398.53
2023-05-14T03:46:49.586Z,101398.53
2023-05-14T03:49:17.730Z,101402.94
2023-05-14T03:51:45.481Z,101402.41
2023-05-14T03:54:13.184Z,101407.03
2023-05-14T03:56:43.224Z,101396.56
2023-05-14T03:59:10.934Z,101394.38
2023-05-14T04:01:39.064Z,101399.03
2023-05-14T04:04:07.020Z,101397.41
2023-05-14T04:06:34.891Z,101399.84
2023-05-14T04:09:03.535Z,101397.66
2023-05-14T04:11:31.590Z,101397.94
2023-05-14T04:14:00.535Z,101395.19
2023-05-14T04:16:28.368Z,101385.53
2023-05-14T04:18:56.151Z,101385.53
2023-05-14T04:21:24.026Z,101385.78
2023-05-14T04:23:52.050Z,101388.56
2023-05-14T04:26:19.687Z,101383.06
2023-05-14T04:28:47.389Z,101377.56
2023-05-14T04:31:17.220Z,101379.22
2023-05-14T04:33:44.933Z,101380.31
2023-05-14T04:36:12.596Z,101372.31
2023-05-14T04:38:41.632Z,101377.59
2023-05-14T04:41:09.301Z,101382.31
2023-05-14T04:43:37.454Z,101375.41
2023-05-14T04:48:39.269Z,101366.03
2023-05-14T04:51:07.354Z,101361.94
2023-05-14T04:53:35.015Z,101361.66
2023-05-14T04:56:03.039Z,101365.53
2023-05-14T04:58:34.531Z,101364.13
2023-05-14T05:01:04.163Z,101363.81
2023-05-14T05:03:32.182Z,101365.75
2023-05-14T05:06:01.291Z,101364.66
2023-05-14T05:08:29.795Z,101367.09
2023-05-14T05:10:57.503Z,101365.19
2023-05-14T05:13:25.235Z,101361.06
2023-05-14T05:15:53.384Z,101368.22
2023-05-14T05:18:21.107Z,101366.84
2023-05-14T05:20:48.860Z,101359.91
2023-05-14T05:23:18.325Z,101354.66
2023-05-14T05:25:46.037Z,101355.41
2023-05-14T05:28:13.706Z,101351.25
2023-05-14T05:30:41.887Z,101354.25
2023-05-14T05:33:09.648Z,101357.81
2023-05-14T05:35:38.155Z,101352.78
2023-05-14T05:38:07.289Z,101346.13
2023-05-14T05:40:36.440Z,101348.00
2023-05-14T05:43:04.122Z,101350.72
2023-05-14T05:45:31.876Z,101347.13
2023-05-14T05:47:59.606Z,101354.22
2023-05-14T05:50:27.744Z,101356.44
2023-05-14T05:52:55.468Z,101352.78
2023-05-14T05:55:23.311Z,101353.00
2023-05-14T05:57:52.396Z,101353.78
2023-05-14T06:00:21.049Z,101352.88
2023-05-14T06:02:49.175Z,101352.53
2023-05-14T06:05:17.026Z,101361.56
2023-05-14T06:07:44.750Z,101357.88
2023-05-14T06:10:12.376Z,101360.53
2023-05-14T06:12:40.426Z,101369.59
2023-05-14T06:15:10.848Z,101361.00
2023-05-14T06:17:38.622Z,101356.31
2023-05-14T06:20:07.898Z,101358.47
2023-05-14T06:22:36.209Z,101355.94
2023-05-14T06:25:04.339Z,101353.19
2023-05-14T06:27:32.618Z,101349.53
2023-05-14T06:30:00.293Z,101353.34
2023-05-14T06:32:29.439Z,101353.56
2023-05-14T06:34:57.545Z,101356.59
2023-05-14T06:37:25.298Z,101348.22
2023-05-14T06:39:53.626Z,101359.00
2023-05-14T06:42:22.379Z,101363.00
2023-05-14T06:44:50.066Z,101358.56
2023-05-14T06:47:18.034Z,101356.53
2023-05-14T06:49:47.154Z,101360.91
2023-05-14T06:52:14.872Z,101362.75
2023-05-14T06:54:43.339Z,101365.75
2023-05-14T06:57:11.087Z,101366.00
2023-05-14T06:59:38.824Z,101363.44
2023-05-14T07:02:07.219Z,101362.03
2023-05-14T07:04:35.130Z,101364.09
2023-05-14T07:07:05.631Z,101363.50
2023-05-14T07:09:34.003Z,101355.97
2023-05-14T07:12:01.726Z,101354.75
2023-05-14T07:14:29.400Z,101348.03
2023-05-14T07:16:58.861Z,101347.63
2023-05-14T07:19:28.543Z,101357.53
2023-05-14T07:21:56.206Z,101361.06
2023-05-14T07:24:25.737Z,101360.47
2023-05-14T07:26:54.314Z,101355.94
2023-05-14T07:29:22.123Z,101349.44
2023-05-14T07:31:50.227Z,101354.03
2023-05-14T07:34:18.036Z,101350.88
2023-05-14T07:36:46.286Z,101351.84
2023-05-14T07:39:14.156Z,101343.72
2023-05-14T07:41:43.169Z,101351.97
2023-05-14T07:44:10.968Z,101344.69
2023-05-14T07:46:38.718Z,101341.41
2023-05-14T07:49:06.458Z,101341.81
2023-05-14T07:51:34.604Z,101336.25
2023-05-14T07:54:02.355Z,101341.09
2023-05-14T07:56:30.565Z,101342.22
2023-05-14T07:58:59.836Z,101328.97
2023-05-14T08:01:27.903Z,101323.84
2023-05-14T08:03:56.025Z,101320.34
2023-05-14T08:06:23.749Z,101318.63
2023-05-14T08:08:51.753Z,101305.34
2023-05-14T08:11:19.499Z,101317.78
2023-05-14T08:13:47.246Z,101326.06
2023-05-14T08:16:16.696Z,101324.72
2023-05-14T08:18:44.481Z,101317.03
2023-05-14T08:21:12.272Z,101314.16
2023-05-14T08:23:40.321Z,101305.41
2023-05-14T08:26:08.581Z,101305.47
2023-05-14T08:28:36.715Z,101321.81
2023-05-14T08:31:04.451Z,101317.28
2023-05-14T08:33:34.569Z,101315.59
2023-05-14T08:36:02.381Z,101319.56
2023-05-14T08:38:30.114Z,101308.41
2023-05-14T08:40:58.908Z,101313.50
2023-05-14T08:43:30.371Z,101294.25
2023-05-14T08:46:01.693Z,101302.66
2023-05-14T08:48:33.517Z,101305.13
2023-05-14T08:51:03.312Z,101294.06
2023-05-14T08:53:32.126Z,101284.97
2023-05-14T08:56:02.635Z,101300.69
2023-05-14T08:58:30.089Z,101299.09
2023-05-14T09:00:57.778Z,101294.06
2023-05-14T09:03:26.054Z,101297.88
2023-05-14T09:05:54.706Z,101289.09
2023-05-14T09:08:24.473Z,101287.31
2023-05-14T09:10:52.093Z,101276.72
2023-05-14T09:13:19.729Z,101265.13
2023-05-14T09:15:49.769Z,101276.25
2023-05-14T09:18:18.528Z,101278.22
2023-05-14T09:20:48.358Z,101274.88
2023-05-14T09:23:16.444Z,101268.97
2023-05-14T09:25:45.578Z,101263.91
2023-05-14T09:28:13.260Z,101262.75
2023-05-14T09:30:41.526Z,101252.59
2023-05-14T09:33:10.413Z,101250.13
2023-05-14T09:35:40.582Z,101244.88
2023-05-14T09:38:09.291Z,101252.66
2023-05-14T09:40:37.249Z,101253.13
2023-05-14T09:43:06.532Z,101253.03
2023-05-14T09:45:36.299Z,101251.13
2023-05-14T09:48:04.291Z,101243.91
2023-05-14T09:50:32.255Z,101229.28
2023-05-14T09:53:00.247Z,101226.75
2023-05-14T09:55:28.745Z,101222.56
2023-05-14T09:57:56.504Z,101212.94
2023-05-14T10:00:26.701Z,101230.47
2023-05-14T10:02:56.167Z,101218.88
2023-05-14T10:05:25.151Z,101220.03
2023-05-14T10:07:55.305Z,101220.75
2023-05-14T10:10:28.011Z,101226.50
2023-05-14T10:12:59.419Z,101224.78
2023-05-14T10:15:35.021Z,101226.41
2023-05-14T10:18:09.557Z,101210.34
2023-05-14T10:20:39.528Z,101199.81
2023-05-14T10:23:08.286Z,101210.09
2023-05-14T10:25:37.484Z,101204.84
2023-05-14T10:28:07.309Z,101201.81
2023-05-14T10:30:36.368Z,101198.41
2023-05-14T10:33:13.683Z,101191.56
2023-05-14T10:35:58.305Z,101191.41
2023-05-14T10:38:28.592Z,101178.56
2023-05-14T10:41:03.909Z,101167.19
2023-05-14T10:43:37.711Z,101175.28
2023-05-14T10:46:08.241Z,101183.03
2023-05-14T10:48:37.570Z,101184.13
2023-05-14T10:51:08.110Z,101179.28
2023-05-14T10:53:37.946Z,101176.75
2023-05-14T10:56:07.730Z,101178.94
2023-05-14T10:58:38.601Z,101165.72
2023-05-14T11:01:09.404Z,101175.91
2023-05-14T11:03:42.747Z,101174.97
2023-05-14T11:06:11.682Z,101175.66
2023-05-14T11:08:40.040Z,101172.38
2023-05-14T11:11:08.289Z,101171.88
2023-05-14T11:13:36.444Z,101163.03
2023-05-14T11:16:18.979Z,101154.03
2023-05-14T11:18:54.758Z,101144.88
2023-05-14T11:21:22.934Z,101150.44
2023-05-14T11:23:51.011Z,101143.41
2023-05-14T11:26:21.411Z,101136.50
2023-05-14T11:28:49.959Z,101145.53
2023-05-14T11:31:17.648Z,101142.75
2023-05-14T11:33:45.548Z,101139.50
2023-05-14T11:36:14.680Z,101121.47
2023-05-14T11:38:49.187Z,101140.09
2023-05-14T11:41:16.926Z,101143.41
2023-05-14T11:43:44.705Z,101139.50
2023-05-14T11:46:19.079Z,101135.06
2023-05-14T11:48:46.829Z,101118.84
2023-05-14T11:51:16.463Z,101118.50
2023-05-14T11:53:44.185Z,101112.13
2023-05-14T11:56:11.900Z,101109.97
2023-05-14T11:58:40.087Z,101100.47
2023-05-14T12:01:07.817Z,101101.28
2023-05-14T12:03:36.170Z,101088.16
2023-05-14T12:06:08.218Z,101080.41
2023-05-14T12:08:38.541Z,101082.38
2023-05-14T12:11:06.823Z,101094.94
2023-05-14T12:13:34.995Z,101086.06
2023-05-14T12:16:03.759Z,101084.69
2023-05-14T12:18:32.981Z,101073.88
2023-05-14T12:21:05.136Z,101073.06
2023-05-14T12:23:34.507Z,101074.22
2023-05-14T12:26:06.041Z,101071.09
2023-05-14T12:28:37.723Z,101075.50
2023-05-14T12:31:06.563Z,101079.66
2023-05-14T12:33:34.853Z,101081.44
2023-05-14T12:36:10.434Z,101076.34
2023-05-14T12:38:48.285Z,101070.44
2023-05-14T12:41:17.329Z,101060.81
2023-05-14T12:43:45.660Z,101059.59
2023-05-14T12:46:13.704Z,101049.75
2023-05-14T12:48:41.429Z,101049.22
2023-05-14T12:51:09.570Z,101056.75
2023-05-14T12:53:37.180Z,101065.81
2023-05-14T12:56:05.495Z,101062.75
2023-05-14T12:58:34.854Z,101057.31
2023-05-14T13:01:02.576Z,101050.16
2023-05-14T13:03:31.906Z,101044.31
2023-05-14T13:06:00.174Z,101044.00
2023-05-14T13:08:27.840Z,101061.94
2023-05-14T13:10:56.594Z,101060.78
2023-05-14T13:13:24.621Z,101050.47
2023-05-14T13:15:54.031Z,101047.22
2023-05-14T13:18:22.339Z,101046.53
2023-05-14T13:20:50.021Z,101038.19
2023-05-14T13:23:17.968Z,101033.41
2023-05-14T13:25:46.524Z,101028.97
2023-05-14T13:28:15.903Z,101024.41
2023-05-14T13:31:06.549Z,101025.34
2023-05-14T13:33:36.153Z,101017.66
2023-05-14T13:36:04.027Z,101030.09
2023-05-14T13:38:32.166Z,101017.00
2023-05-14T13:41:02.523Z,101020.72
2023-05-14T13:43:30.994Z,101005.84
2023-05-14T13:45:59.002Z,101007.47
2023-05-14T13:48:28.922Z,100999.13
2023-05-14T13:50:56.672Z,100999.81
2023-05-14T13:53:25.963Z,100993.56
2023-05-14T13:55:56.731Z,100990.03
2023-05-14T13:58:25.235Z,100993.97
2023-05-14T14:00:53.537Z,100979.50
2023-05-14T14:03:21.274Z,101003.56
2023-05-14T14:05:51.886Z,100983.44
2023-05-14T14:08:24.000Z,100996.63
2023-05-14T14:10:54.327Z,100986.69
2023-05-14T14:13:23.219Z,100995.75
2023-05-14T14:15:51.126Z,100980.97
2023-05-14T14:18:18.976Z,100977.41
2023-05-14T14:20:46.691Z,100985.00
2023-05-14T14:23:15.719Z,100980.19
2023-05-14T14:25:43.507Z,100972.16
2023-05-14T14:28:11.510Z,100979.34
2023-05-14T14:30:39.144Z,100975.19
2023-05-14T14:33:07.555Z,100984.53
2023-05-14T14:35:35.723Z,100969.22
2023-05-14T14:38:03.405Z,100980.38
2023-05-14T14:40:34.400Z,100973.22
2023-05-14T14:43:02.306Z,100971.72
2023-05-14T14:45:30.032Z,100965.22
2023-05-14T14:48:28.644Z,100956.47
2023-05-14T14:50:56.922Z,100964.34
2023-05-14T14:53:25.557Z,100962.25
2023-05-14T14:55:55.321Z,100956.69
2023-05-14T14:58:23.045Z,100972.66
2023-05-14T15:00:52.069Z,100960.91
2023-05-14T15:03:20.383Z,100962.16
2023-05-14T15:05:48.228Z,100952.25
2023-05-14T15:08:16.371Z,100961.00
2023-05-14T15:10:45.810Z,100963.53
2023-05-14T15:13:15.354Z,100964.22
2023-05-14T15:15:43.065Z,100964.75
2023-05-14T15:18:11.500Z,100956.91
2023-05-14T15:20:39.301Z,100949.69
2023-05-14T15:23:07.188Z,100952.91
2023-05-14T15:25:35.645Z,100946.03
2023-05-14T15:28:03.770Z,100940.00
2023-05-14T15:30:32.907Z,100936.94
2023-05-14T15:33:01.173Z,100934.47
2023-05-14T15:35:28.915Z,100929.38
2023-05-14T15:37:58.014Z,100928.91
2023-05-14T15:40:26.360Z,100920.09
2023-05-14T15:42:54.239Z,100918.47
2023-05-14T15:45:22.476Z,100917.63
2023-05-14T15:47:51.590Z,100904.38
2023-05-14T15:50:19.820Z,100900.34
2023-05-14T15:52:47.565Z,100901.50
2023-05-14T15:55:15.484Z,100909.47
2023-05-14T15:57:43.547Z,100915.13
2023-05-14T16:00:12.775Z,100902.28
2023-05-14T16:02:42.205Z,100899.72
2023-05-14T16:05:11.808Z,100897.25
2023-05-14T16:07:39.479Z,100905.47
2023-05-14T16:10:08.601Z,100907.09
2023-05-14T16:12:36.278Z,100900.03
2023-05-14T16:15:04.195Z,100899.56
2023-05-14T16:17:33.064Z,100891.41
2023-05-14T16:20:01.083Z,100885.38
2023-05-14T16:22:33.610Z,100880.97
2023-05-14T16:25:03.389Z,100883.13
2023-05-14T16:27:32.016Z,100873.81
2023-05-14T16:29:59.982Z,100864.31
2023-05-14T16:32:27.933Z,100860.22
2023-05-14T16:34:56.425Z,100867.63
2023-05-14T16:37:24.699Z,100868.78
2023-05-14T16:39:53.763Z,100850.47
2023-05-14T16:42:21.502Z,100868.63
2023-05-14T16:44:50.471Z,100868.50
2023-05-14T16:47:18.160Z,100868.34
2023-05-14T16:49:46.240Z,100863.13
2023-05-14T16:52:14.239Z,100872.94
2023-05-14T16:54:41.890Z,100874.09
2023-05-14T16:57:10.985Z,100870.03
2023-05-14T16:59:39.203Z,100862.31
2023-05-14T17:02:07.847Z,100872.16
2023-05-14T17:04:38.687Z,100872.31
2023-05-14T17:07:07.021Z,100863.69
2023-05-14T17:09:34.799Z,100865.34
2023-05-14T17:12:02.895Z,100863.91
2023-05-14T17:14:32.392Z,100858.53
2023-05-14T17:17:00.064Z,100851.84
2023-05-14T17:19:27.813Z,100851.41
2023-05-14T17:21:56.010Z,100849.31
2023-05-14T17:24:23.755Z,100852.91
2023-05-14T17:26:51.844Z,100852.13
2023-05-14T17:29:19.529Z,100857.38
2023-05-14T17:31:49.196Z,100853.47
2023-05-14T17:34:17.927Z,100857.22
2023-05-14T17:36:45.823Z,100855.38
2023-05-14T17:39:13.850Z,100854.59
2023-05-14T17:41:41.998Z,100844.63
2023-05-14T17:44:12.554Z,100848.72
2023-05-14T17:46:42.455Z,100843.31
2023-05-14T17:49:12.449Z,100841.06
2023-05-14T17:51:40.144Z,100844.63
2023-05-14T17:54:08.190Z,100842.19
2023-05-14T17:56:35.968Z,100846.44
2023-05-14T17:59:03.713Z,100837.94
2023-05-14T18:01:32.070Z,100842.84
2023-05-14T18:03:59.812Z,100844.47
2023-05-14T18:06:28.959Z,100842.38
2023-05-14T18:08:57.129Z,100841.22
2023-05-14T18:11:24.826Z,100845.78
2023-05-14T18:13:52.959Z,100844.63
2023-05-14T18:16:20.709Z,100849.50
2023-05-14T18:18:48.412Z,100842.50
2023-05-14T18:21:16.529Z,100852.75
2023-05-14T18:23:46.536Z,100857.50
2023-05-14T18:26:14.267Z,100855.50
2023-05-14T18:28:42.108Z,100852.69
2023-05-14T18:31:10.379Z,100846.66
2023-05-14T18:33:38.097Z,100852.56
2023-05-14T18:36:06.788Z,100843.84
2023-05-14T18:38:34.573Z,100847.91
2023-05-14T18:41:03.798Z,100844.94
2023-05-14T18:46:18.089Z,100845.38
2023-05-14T18:48:45.939Z,100838.22
2023-05-14T18:51:13.771Z,100844.72
2023-05-14T18:53:41.577Z,100848.56
2023-05-14T18:56:11.670Z,100846.44
2023-05-14T18:58:39.403Z,100856.03
2023-05-14T19:01:07.150Z,100857.47
2023-05-14T19:03:36.150Z,100863.78
2023-05-14T19:06:03.856Z,100852.53
2023-05-14T19:08:31.522Z,100863.28
2023-05-14T19:10:59.585Z,100861.47
2023-05-14T19:13:30.216Z,100868.28
2023-05-14T19:15:58.411Z,100857.63
2023-05-14T19:18:26.557Z,100860.22
2023-05-14T19:20:56.513Z,100847.44
2023-05-14T19:23:24.650Z,100847.47
2023-05-14T19:25:52.378Z,100844.00
2023-05-14T19:28:20.056Z,100855.63
2023-05-14T19:30:51.105Z,100852.06
2023-05-14T19:33:19.128Z,100843.75
2023-05-14T19:35:47.276Z,100845.81
2023-05-14T19:38:15.299Z,100846.94
2023-05-14T19:40:44.395Z,100839.56
2023-05-14T19:43:12.844Z,100838.06
2023-05-14T19:45:42.927Z,100836.75
2023-05-14T19:48:12.443Z,100830.19
2023-05-14T19:50:41.402Z,100831.94
2023-05-14T19:53:09.411Z,100823.78
2023-05-14T19:55:37.090Z,100824.41
2023-05-14T19:58:04.735Z,100830.34
2023-05-14T20:00:32.971Z,100822.97
2023-05-14T20:03:00.906Z,100827.00
2023-05-14T20:05:30.955Z,100814.91
2023-05-14T20:07:59.073Z,100816.66
2023-05-14T20:10:27.042Z,100814.53
2023-05-14T20:12:55.374Z,100820.06
2023-05-14T20:15:23.094Z,100813.81
2023-05-14T20:17:50.957Z,100809.41
2023-05-14T20:20:19.199Z,100811.47
2023-05-14T20:22:48.230Z,100805.53
2023-05-14T20:25:16.162Z,100810.34
2023-05-14T20:27:44.307Z,100804.16
2023-05-14T20:30:12.405Z,100809.59
2023-05-14T20:32:40.154Z,100800.78
2023-05-14T20:35:09.092Z,100799.38
2023-05-14T20:37:37.849Z,100796.41
2023-05-14T20:40:10.588Z,100798.94
2023-05-14T20:42:38.358Z,100791.88
2023-05-14T20:45:07.784Z,100784.72
2023-05-14T20:47:36.498Z,100786.97
2023-05-14T20:50:04.668Z,100786.97
2023-05-14T20:52:32.429Z,100782.97
2023-05-14T20:55:01.947Z,100777.16
2023-05-14T20:57:31.486Z,100775.81
2023-05-14T20:59:59.139Z,100773.94
2023-05-14T21:02:27.376Z,100761.28
2023-05-14T21:04:55.201Z,100763.53
2023-05-14T21:07:22.933Z,100766.91
2023-05-14T21:09:52.849Z,100762.28
2023-05-14T21:12:20.637Z,100764.22
2023-05-14T21:14:49.655Z,100760.13
2023-05-14T21:17:17.775Z,100753.59
2023-05-14T21:19:45.428Z,100750.53
2023-05-14T21:22:14.040Z,100752.16
2023-05-14T21:24:42.201Z,100754.19
2023-05-14T21:27:09.905Z,100752.56
2023-05-14T21:29:37.552Z,100740.19
2023-05-14T21:32:07.829Z,100739.75
2023-05-14T21:34:35.589Z,100744.03
2023-05-14T21:37:03.747Z,100743.59
2023-05-14T21:39:31.444Z,100740.38
2023-05-14T21:41:59.411Z,100731.69
2023-05-14T21:44:27.120Z,100731.28
2023-05-14T21:46:55.159Z,100731.28
2023-05-14T21:49:24.180Z,100733.78
2023-05-14T21:51:54.014Z,100734.88
2023-05-14T21:54:22.389Z,100724.13
2023-05-14T21:56:50.160Z,100727.44
2023-05-14T21:59:18.309Z,100737.66
2023-05-14T22:02:05.363Z,100727.00
2023-05-14T22:04:36.174Z,100722.09
2023-05-14T22:07:04.353Z,100721.94
2023-05-14T22:09:32.014Z,100721.72
2023-05-14T22:12:00.163Z,100721.22
2023-05-14T22:14:27.852Z,100714.03
2023-05-14T22:16:55.678Z,100711.00
2023-05-14T22:19:23.830Z,100707.50
2023-05-14T22:21:52.895Z,100710.47
2023-05-14T22:24:20.792Z,100703.34
2023-05-14T22:26:49.452Z,100710.72
2023-05-14T22:29:17.146Z,100705.72
2023-05-14T22:31:45.236Z,100703.56
2023-05-14T22:34:12.897Z,100705.84
2023-05-14T22:36:40.654Z,100712.06
2023-05-14T22:39:11.441Z,100707.66
2023-05-14T22:41:41.083Z,100697.25
2023-05-14T22:44:09.274Z,100706.09
2023-05-14T22:46:37.075Z,100703.41
2023-05-14T22:49:04.773Z,100693.72
2023-05-14T22:51:32.965Z,100700.44
2023-05-14T22:54:00.610Z,100687.78
2023-05-14T22:56:29.906Z,100689.78
2023-05-14T22:58:57.859Z,100697.00
2023-05-14T23:01:25.798Z,100689.25
2023-05-14T23:03:53.514Z,100680.75
2023-05-14T23:06:22.534Z,100678.00
2023-05-14T23:08:50.232Z,100673.94
2023-05-14T23:11:18.573Z,100676.69
2023-05-14T23:13:47.974Z,100677.78
2023-05-14T23:16:15.994Z,100671.47
2023-05-14T23:18:44.042Z,100669.31
2023-05-14T23:21:13.116Z,100660.28
2023-05-14T23:23:40.734Z,100657.31
2023-05-14T23:26:08.458Z,100652.72
2023-05-14T23:28:36.525Z,100650.00
2023-05-14T23:31:05.663Z,100654.97
2023-05-14T23:33:33.336Z,100657.00
2023-05-14T23:36:01.441Z,100640.78
2023-05-14T23:38:29.158Z,100636.66
2023-05-14T23:40:57.322Z,100632.59
2023-05-14T23:43:25.086Z,100636.66
2023-05-14T23:45:52.834Z,100635.03
2023-05-14T23:48:22.893Z,100632.06
2023-05-14T23:50:50.714Z,100632.72
2023-05-14T23:53:18.846Z,100629.81
2023-05-14T23:55:47.588Z,100625.72
2023-05-14T23:58:15.304Z,100615.75
